createdAt,value
2023-02-25T00:02:20.188Z,10.72
2023-02-25T00:05:07.362Z,10.71
2023-02-25T00:07:54.249Z,10.75
2023-02-25T00:10:40.136Z,10.76
2023-02-25T00:13:26.785Z,10.77
2023-02-25T00:16:14.609Z,10.78
2023-02-25T00:19:00.537Z,10.83
2023-02-25T00:21:47.360Z,10.81
2023-02-25T00:24:34.106Z,10.83
2023-02-25T00:27:19.943Z,10.83
2023-02-25T00:30:06.516Z,10.83
2023-02-25T00:32:52.354Z,10.78
2023-02-25T00:35:41.322Z,10.77
2023-02-25T00:38:28.015Z,10.73
2023-02-25T00:41:16.187Z,10.67
2023-02-25T00:44:02.381Z,10.73
2023-02-25T00:46:51.689Z,10.71
2023-02-25T00:49:37.593Z,10.71
2023-02-25T00:52:23.344Z,10.71
2023-02-25T00:55:10.199Z,10.67
2023-02-25T00:57:56.008Z,10.72
2023-02-25T01:00:51.767Z,10.72
2023-02-25T01:03:38.855Z,10.73
2023-02-25T01:06:26.604Z,10.75
2023-02-25T01:09:14.182Z,10.72
2023-02-25T01:12:00.395Z,10.71
2023-02-25T01:14:46.512Z,10.72
2023-02-25T01:17:33.189Z,10.68
2023-02-25T01:20:20.113Z,10.71
2023-02-25T01:23:08.596Z,10.62
2023-02-25T01:25:54.332Z,10.65
2023-02-25T01:28:40.386Z,10.61
2023-02-25T01:31:29.602Z,10.62
2023-02-25T01:34:17.269Z,10.55
2023-02-25T01:37:04.293Z,10.62
2023-02-25T01:39:50.723Z,10.62
2023-02-25T01:42:37.142Z,10.63
2023-02-25T01:45:28.616Z,10.55
2023-02-25T01:48:18.486Z,10.62
2023-02-25T01:51:11.515Z,10.54
2023-02-25T01:53:59.914Z,10.56
2023-02-25T01:56:52.778Z,10.47
2023-02-25T01:59:40.446Z,10.50
2023-02-25T02:02:28.312Z,10.43
2023-02-25T02:05:17.054Z,10.38
2023-02-25T02:08:03.080Z,10.36
2023-02-25T02:10:50.338Z,10.30
2023-02-25T02:13:38.050Z,10.30
2023-02-25T02:16:37.276Z,10.26
2023-02-25T02:19:47.806Z,10.27
2023-02-25T02:22:37.938Z,10.28
2023-02-25T02:26:03.739Z,10.27
2023-02-25T02:29:01.381Z,10.28
2023-02-25T02:31:50.193Z,10.28
2023-02-25T02:34:45.003Z,10.25
2023-02-25T02:37:30.906Z,10.24
2023-02-25T02:40:37.134Z,10.23
2023-02-25T02:43:54.344Z,10.20
2023-02-25T02:46:51.739Z,10.20
2023-02-25T02:49:52.868Z,10.19
2023-02-25T02:52:43.480Z,10.22
2023-02-25T02:55:36.155Z,10.23
2023-02-25T02:58:37.188Z,10.22
2023-02-25T03:01:39.820Z,10.23
2023-02-25T03:04:29.196Z,10.21
2023-02-25T03:07:16.366Z,10.25
2023-02-25T03:10:05.340Z,10.23
2023-02-25T03:12:52.728Z,10.23
2023-02-25T03:15:41.016Z,10.23
2023-02-25T03:18:53.121Z,10.21
2023-02-25T03:21:51.649Z,10.24
2023-02-25T03:24:56.029Z,10.24
2023-02-25T03:27:46.922Z,10.26
2023-02-25T03:31:10.464Z,10.25
2023-02-25T03:34:08.807Z,10.26
2023-02-25T03:36:57.842Z,10.23
2023-02-25T03:39:49.732Z,10.16
2023-02-25T03:42:35.815Z,10.13
2023-02-25T03:45:23.338Z,10.11
2023-02-25T03:48:11.403Z,10.03
2023-02-25T03:51:01.122Z,10.04
2023-02-25T03:53:50.278Z,10.08
2023-02-25T03:56:45.229Z,10.09
2023-02-25T03:59:31.269Z,10.05
2023-02-25T04:02:18.042Z,10.08
2023-02-25T04:05:04.206Z,10.10
2023-02-25T04:07:50.111Z,10.01
2023-02-25T04:10:36.679Z,10.05
2023-02-25T04:13:22.653Z,10.02
2023-02-25T04:16:09.184Z,9.98
2023-02-25T04:18:56.798Z,9.95
2023-02-25T04:21:43.497Z,9.93
2023-02-25T04:24:29.890Z,9.90
2023-02-25T04:27:16.939Z,9.86
2023-02-25T04:30:02.931Z,9.85
2023-02-25T04:32:48.828Z,9.85
2023-02-25T04:35:34.838Z,9.80
2023-02-25T04:38:21.604Z,9.79
2023-02-25T04:41:07.335Z,9.78
2023-02-25T04:43:52.967Z,9.77
2023-02-25T04:46:41.108Z,9.77
2023-02-25T04:49:27.102Z,9.72
2023-02-25T04:52:16.004Z,9.74
2023-02-25T04:55:01.825Z,9.74
2023-02-25T04:57:47.634Z,9.73
2023-02-25T05:00:33.313Z,9.70
2023-02-25T05:03:19.298Z,9.64
2023-02-25T05:06:06.313Z,9.65
2023-02-25T05:08:52.470Z,9.61
2023-02-25T05:11:38.495Z,9.64
2023-02-25T05:14:24.432Z,9.63
2023-02-25T05:17:10.415Z,9.60
2023-02-25T05:19:58.598Z,9.57
2023-02-25T05:22:44.445Z,9.61
2023-02-25T05:25:30.289Z,9.57
2023-02-25T05:28:16.079Z,9.61
2023-02-25T05:31:09.760Z,9.61
2023-02-25T05:33:56.664Z,9.60
2023-02-25T05:36:42.246Z,9.66
2023-02-25T05:39:28.098Z,9.69
2023-02-25T05:42:13.738Z,9.70
2023-02-25T05:45:00.434Z,9.73
2023-02-25T05:47:49.077Z,9.80
2023-02-25T05:50:41.769Z,9.81
2023-02-25T05:53:28.108Z,9.88
2023-02-25T05:56:23.969Z,9.91
2023-02-25T05:59:12.129Z,9.92
2023-02-25T06:01:59.383Z,10.04
2023-02-25T06:04:45.298Z,10.11
2023-02-25T06:07:33.393Z,10.16
2023-02-25T06:10:19.574Z,10.25
2023-02-25T06:13:06.961Z,10.32
2023-02-25T06:15:52.708Z,10.41
2023-02-25T06:18:38.489Z,10.42
2023-02-25T06:21:25.883Z,10.48
2023-02-25T06:24:13.025Z,10.62
2023-02-25T06:26:58.812Z,10.67
2023-02-25T06:29:48.037Z,10.76
2023-02-25T06:32:34.042Z,10.79
2023-02-25T06:35:23.542Z,10.87
2023-02-25T06:38:10.637Z,10.93
2023-02-25T06:40:57.372Z,11.00
2023-02-25T06:43:44.879Z,11.05
2023-02-25T06:46:31.134Z,11.09
2023-02-25T06:49:19.113Z,11.12
2023-02-25T06:52:05.692Z,11.16
2023-02-25T06:54:52.032Z,11.21
2023-02-25T06:57:38.000Z,11.25
2023-02-25T07:00:24.619Z,11.30
2023-02-25T07:03:14.470Z,11.36
2023-02-25T07:06:00.340Z,11.43
2023-02-25T07:08:46.646Z,11.38
2023-02-25T07:11:34.694Z,11.52
2023-02-25T07:14:21.600Z,11.50
2023-02-25T07:17:07.570Z,11.61
2023-02-25T07:19:53.577Z,11.64
2023-02-25T07:22:42.046Z,11.74
2023-02-25T07:25:27.849Z,11.79
2023-02-25T07:28:13.828Z,11.82
2023-02-25T07:31:14.902Z,11.91
2023-02-25T07:34:03.618Z,11.99
2023-02-25T07:36:50.340Z,12.06
2023-02-25T07:39:36.238Z,12.07
2023-02-25T07:42:23.373Z,12.13
2023-02-25T07:45:10.680Z,12.18
2023-02-25T07:47:58.510Z,12.20
2023-02-25T07:50:44.814Z,12.23
2023-02-25T07:53:31.831Z,12.29
2023-02-25T07:56:20.398Z,12.42
2023-02-25T07:59:07.097Z,12.52
2023-02-25T08:01:52.777Z,12.66
2023-02-25T08:04:39.825Z,12.73
2023-02-25T08:07:26.728Z,12.80
2023-02-25T08:10:13.434Z,12.85
2023-02-25T08:13:01.470Z,12.93
2023-02-25T08:15:47.629Z,13.01
2023-02-25T08:18:33.820Z,13.09
2023-02-25T08:21:24.471Z,13.24
2023-02-25T08:24:11.571Z,13.37
2023-02-25T08:26:57.392Z,13.39
2023-02-25T08:29:48.631Z,13.55
2023-02-25T08:32:36.279Z,13.63
2023-02-25T08:35:25.666Z,13.71
2023-02-25T08:38:13.068Z,13.78
2023-02-25T08:41:00.811Z,13.80
2023-02-25T08:43:51.435Z,13.88
2023-02-25T08:46:41.800Z,13.83
2023-02-25T08:49:28.276Z,13.91
2023-02-25T08:52:14.732Z,13.91
2023-02-25T08:55:04.123Z,13.96
2023-02-25T08:57:51.321Z,14.03
2023-02-25T09:00:37.906Z,14.12
2023-02-25T09:03:27.992Z,14.20
2023-02-25T09:06:14.147Z,14.31
2023-02-25T09:09:01.731Z,14.39
2023-02-25T09:11:49.173Z,14.49
2023-02-25T09:14:35.833Z,14.57
2023-02-25T09:17:29.936Z,14.64
2023-02-25T09:20:18.168Z,14.72
2023-02-25T09:23:04.173Z,14.83
2023-02-25T09:25:50.304Z,14.87
2023-02-25T09:28:40.007Z,14.90
2023-02-25T09:31:29.884Z,14.93
2023-02-25T09:34:15.627Z,14.91
2023-02-25T09:37:04.457Z,14.86
2023-02-25T09:39:50.587Z,14.85
2023-02-25T09:42:54.428Z,14.80
2023-02-25T09:45:42.150Z,14.85
2023-02-25T09:48:35.064Z,14.83
2023-02-25T09:51:27.204Z,14.82
2023-02-25T09:54:27.943Z,14.73
2023-02-25T09:57:19.207Z,14.82
2023-02-25T10:00:11.884Z,14.81
2023-02-25T10:03:05.049Z,14.85
2023-02-25T10:06:15.588Z,14.91
2023-02-25T10:09:10.389Z,14.95
2023-02-25T10:12:10.114Z,14.99
2023-02-25T10:15:22.586Z,15.01
2023-02-25T10:18:18.347Z,15.09
2023-02-25T10:21:49.204Z,15.07
2023-02-25T10:24:50.909Z,15.14
2023-02-25T10:27:40.896Z,15.16
2023-02-25T10:30:33.437Z,15.11
2023-02-25T10:33:24.387Z,15.21
2023-02-25T10:36:16.401Z,15.24
2023-02-25T10:39:02.194Z,15.26
2023-02-25T10:41:49.389Z,15.26
2023-02-25T10:44:35.743Z,15.25
2023-02-25T10:47:31.354Z,15.22
2023-02-25T10:50:29.768Z,15.19
2023-02-25T10:53:19.504Z,15.26
2023-02-25T10:56:06.043Z,15.31
2023-02-25T10:59:22.682Z,15.35
2023-02-25T11:02:41.774Z,15.46
2023-02-25T11:05:41.259Z,15.64
2023-02-25T11:08:29.749Z,15.77
2023-02-25T11:11:53.108Z,15.85
2023-02-25T11:14:42.879Z,15.92
2023-02-25T11:17:29.082Z,15.98
2023-02-25T11:20:23.848Z,16.04
2023-02-25T11:23:22.097Z,16.07
2023-02-25T11:26:08.799Z,16.15
2023-02-25T11:28:54.791Z,16.15
2023-02-25T11:31:42.727Z,16.18
2023-02-25T11:34:31.106Z,16.16
2023-02-25T11:37:36.061Z,16.36
2023-02-25T11:40:22.791Z,16.48
2023-02-25T11:43:36.053Z,16.53
2023-02-25T11:46:24.263Z,16.57
2023-02-25T11:49:11.013Z,16.58
2023-02-25T11:52:18.536Z,16.52
2023-02-25T11:55:42.372Z,16.44
2023-02-25T11:58:53.295Z,16.35
2023-02-25T12:01:44.385Z,16.30
2023-02-25T12:04:41.415Z,16.24
2023-02-25T12:08:05.242Z,16.14
2023-02-25T12:11:13.100Z,16.13
2023-02-25T12:14:05.477Z,16.18
2023-02-25T12:17:10.358Z,16.18
2023-02-25T12:20:17.402Z,16.11
2023-02-25T12:23:22.110Z,16.07
2023-02-25T12:26:23.542Z,15.96
2023-02-25T12:29:51.909Z,15.85
2023-02-25T12:33:15.286Z,15.72
2023-02-25T12:36:31.347Z,15.68
2023-02-25T12:39:47.135Z,15.48
2023-02-25T12:42:44.083Z,15.44
2023-02-25T12:45:56.229Z,15.29
2023-02-25T12:49:00.260Z,15.21
2023-02-25T12:51:52.106Z,15.12
2023-02-25T12:54:59.447Z,15.11
2023-02-25T12:58:10.572Z,15.20
2023-02-25T13:01:28.494Z,15.35
2023-02-25T13:05:02.305Z,15.42
2023-02-25T13:08:06.618Z,15.52
2023-02-25T13:10:52.464Z,15.56
2023-02-25T13:13:47.531Z,15.58
2023-02-25T13:16:58.890Z,15.62
2023-02-25T13:20:12.606Z,15.63
2023-02-25T13:23:27.462Z,15.63
2023-02-25T13:26:44.499Z,15.66
2023-02-25T13:29:35.409Z,15.65
2023-02-25T13:32:39.456Z,15.60
2023-02-25T13:35:40.297Z,15.56
2023-02-25T13:38:42.428Z,15.59
2023-02-25T13:41:56.236Z,15.58
2023-02-25T13:45:14.288Z,15.72
2023-02-25T13:48:15.531Z,15.91
2023-02-25T13:51:20.428Z,16.05
2023-02-25T13:54:24.827Z,16.13
2023-02-25T13:57:40.460Z,16.25
2023-02-25T14:00:46.534Z,16.38
2023-02-25T14:03:41.622Z,16.42
2023-02-25T14:06:31.722Z,16.39
2023-02-25T14:09:46.537Z,16.35
2023-02-25T14:12:53.908Z,16.55
2023-02-25T14:16:22.721Z,16.75
2023-02-25T14:19:33.334Z,16.90
2023-02-25T14:22:33.697Z,16.81
2023-02-25T14:25:56.888Z,16.67
2023-02-25T14:29:01.536Z,16.50
2023-02-25T14:31:54.014Z,16.32
2023-02-25T14:34:40.182Z,16.17
2023-02-25T14:37:31.789Z,16.01
2023-02-25T14:40:23.706Z,15.95
2023-02-25T14:43:35.977Z,15.82
2023-02-25T14:46:40.507Z,15.66
2023-02-25T14:49:43.363Z,15.50
2023-02-25T14:53:03.060Z,15.37
2023-02-25T14:56:07.843Z,15.27
2023-02-25T14:59:15.529Z,15.19
2023-02-25T15:03:01.141Z,15.05
2023-02-25T15:06:09.533Z,15.00
2023-02-25T15:09:21.526Z,14.88
2023-02-25T15:12:19.494Z,14.80
2023-02-25T15:15:08.565Z,14.74
2023-02-25T15:18:15.926Z,14.66
2023-02-25T15:21:27.312Z,14.60
2023-02-25T15:24:41.923Z,14.51
2023-02-25T15:27:46.753Z,14.43
2023-02-25T15:31:28.852Z,14.36
2023-02-25T15:34:20.938Z,14.32
2023-02-25T15:37:25.899Z,14.27
2023-02-25T15:40:16.964Z,14.24
2023-02-25T15:43:41.724Z,14.17
2023-02-25T15:46:34.060Z,14.14
2023-02-25T15:49:36.029Z,14.05
2023-02-25T15:52:52.755Z,14.06
2023-02-25T15:55:40.636Z,14.05
2023-02-25T15:58:31.893Z,14.02
2023-02-25T16:01:40.145Z,13.97
2023-02-25T16:04:43.336Z,13.95
2023-02-25T16:07:35.895Z,13.94
2023-02-25T16:10:46.427Z,13.88
2023-02-25T16:13:34.966Z,13.90
2023-02-25T16:16:21.895Z,13.81
2023-02-25T16:19:40.267Z,13.79
2023-02-25T16:22:28.341Z,13.81
2023-02-25T16:25:16.365Z,13.77
2023-02-25T16:28:15.636Z,13.77
2023-02-25T16:31:12.660Z,13.71
2023-02-25T16:34:06.644Z,13.69
2023-02-25T16:37:14.638Z,13.74
2023-02-25T16:40:01.246Z,13.74
2023-02-25T16:42:47.150Z,13.70
2023-02-25T16:45:45.333Z,13.68
2023-02-25T16:48:34.541Z,13.70
2023-02-25T16:51:36.376Z,13.67
2023-02-25T16:54:31.880Z,13.61
2023-02-25T16:57:22.264Z,13.65
2023-02-25T17:00:16.601Z,13.63
2023-02-25T17:03:05.543Z,13.64
2023-02-25T17:06:17.783Z,13.63
2023-02-25T17:09:04.183Z,13.62
2023-02-25T17:11:55.140Z,13.60
2023-02-25T17:14:50.127Z,13.57
2023-02-25T17:17:38.810Z,13.55
2023-02-25T17:21:04.310Z,13.56
2023-02-25T17:23:51.362Z,13.53
2023-02-25T17:26:44.221Z,13.53
2023-02-25T17:29:36.531Z,13.51
2023-02-25T17:32:25.187Z,13.50
2023-02-25T17:35:12.353Z,13.47
2023-02-25T17:37:59.669Z,13.45
2023-02-25T17:40:46.125Z,13.40
2023-02-25T17:43:33.134Z,13.41
2023-02-25T17:46:36.516Z,13.35
2023-02-25T17:49:30.728Z,13.34
2023-02-25T17:52:20.858Z,13.34
2023-02-25T17:55:36.125Z,13.27
2023-02-25T17:58:23.767Z,13.29
2023-02-25T18:01:19.748Z,13.25
2023-02-25T18:04:06.254Z,13.27
2023-02-25T18:06:56.718Z,13.20
2023-02-25T18:09:42.939Z,13.23
2023-02-25T18:12:31.804Z,13.17
2023-02-25T18:15:22.085Z,13.20
2023-02-25T18:18:21.622Z,13.17
2023-02-25T18:21:10.152Z,13.13
2023-02-25T18:23:56.736Z,13.16
2023-02-25T18:27:30.664Z,13.10
2023-02-25T18:30:21.715Z,13.13
2023-02-25T18:33:11.686Z,13.09
2023-02-25T18:35:58.420Z,13.13
2023-02-25T18:38:47.486Z,13.10
2023-02-25T18:41:33.748Z,13.05
2023-02-25T18:44:30.217Z,13.03
2023-02-25T18:47:16.928Z,13.00
2023-02-25T18:50:06.492Z,13.01
2023-02-25T18:52:52.682Z,12.99
2023-02-25T18:55:39.792Z,12.96
2023-02-25T18:58:25.919Z,12.97
2023-02-25T19:01:27.277Z,12.94
2023-02-25T19:04:17.125Z,12.93
2023-02-25T19:07:05.649Z,12.93
2023-02-25T19:09:51.835Z,12.90
2023-02-25T19:12:50.867Z,12.91
2023-02-25T19:15:36.940Z,12.91
2023-02-25T19:18:26.120Z,12.91
2023-02-25T19:21:14.445Z,12.90
2023-02-25T19:24:06.431Z,12.92
2023-02-25T19:26:52.602Z,12.90
2023-02-25T19:29:38.562Z,12.92
2023-02-25T19:32:26.070Z,12.88
2023-02-25T19:35:12.529Z,12.92
2023-02-25T19:37:58.574Z,12.88
2023-02-25T19:40:45.570Z,12.84
2023-02-25T19:43:35.953Z,12.83
2023-02-25T19:46:22.369Z,12.89
2023-02-25T19:49:14.315Z,12.89
2023-02-25T19:52:00.288Z,12.85
2023-02-25T19:54:59.564Z,12.86
2023-02-25T19:57:46.874Z,12.88
2023-02-25T20:00:32.892Z,12.89
2023-02-25T20:03:19.973Z,12.85
2023-02-25T20:06:13.333Z,12.88
2023-02-25T20:09:04.736Z,12.87
2023-02-25T20:11:53.140Z,12.85
2023-02-25T20:14:39.410Z,12.87
2023-02-25T20:17:26.136Z,12.92
2023-02-25T20:20:13.340Z,12.91
2023-02-25T20:22:59.327Z,12.91
2023-02-25T20:25:45.373Z,12.92
2023-02-25T20:28:33.869Z,12.91
2023-02-25T20:31:20.861Z,12.87
2023-02-25T20:34:12.986Z,12.89
2023-02-25T20:37:10.989Z,12.85
2023-02-25T20:39:59.089Z,12.85
2023-02-25T20:42:46.190Z,12.85
2023-02-25T20:45:32.592Z,12.85
2023-02-25T20:48:31.494Z,12.86
2023-02-25T20:51:17.588Z,12.83
2023-02-25T20:54:05.910Z,12.83
2023-02-25T20:56:52.211Z,12.85
2023-02-25T20:59:44.725Z,12.84
2023-02-25T21:02:30.625Z,12.85
2023-02-25T21:05:22.292Z,12.86
2023-02-25T21:08:11.507Z,12.87
2023-02-25T21:10:58.827Z,12.91
2023-02-25T21:13:47.780Z,12.93
2023-02-25T21:16:33.842Z,12.95
2023-02-25T21:19:23.365Z,12.97
2023-02-25T21:22:09.472Z,12.96
2023-02-25T21:24:55.544Z,12.94
2023-02-25T21:27:41.635Z,12.94
2023-02-25T21:30:27.584Z,12.95
2023-02-25T21:33:18.637Z,12.97
2023-02-25T21:36:05.449Z,12.97
2023-02-25T21:38:55.664Z,12.99
2023-02-25T21:41:44.386Z,13.00
2023-02-25T21:44:30.751Z,12.98
2023-02-25T21:47:16.455Z,12.95
2023-02-25T21:50:02.365Z,13.00
2023-02-25T21:52:49.702Z,13.01
2023-02-25T21:55:35.516Z,12.98
2023-02-25T21:58:21.422Z,12.97
2023-02-25T22:01:24.608Z,12.99
2023-02-25T22:04:11.297Z,12.99
2023-02-25T22:06:58.421Z,13.05
2023-02-25T22:09:44.014Z,12.99
2023-02-25T22:12:30.917Z,13.05
2023-02-25T22:15:16.940Z,13.01
2023-02-25T22:18:06.292Z,13.05
2023-02-25T22:20:52.163Z,13.08
2023-02-25T22:23:39.198Z,13.11
2023-02-25T22:26:29.157Z,13.14
2023-02-25T22:29:38.827Z,13.15
2023-02-25T22:32:24.973Z,13.21
2023-02-25T22:35:14.183Z,13.21
2023-02-25T22:37:59.951Z,13.26
2023-02-25T22:40:45.688Z,13.27
2023-02-25T22:43:32.942Z,13.30
2023-02-25T22:46:20.473Z,13.29
2023-02-25T22:49:07.670Z,13.27
2023-02-25T22:51:56.889Z,13.27
2023-02-25T22:54:43.172Z,13.29
2023-02-25T22:57:30.060Z,13.27
2023-02-25T23:00:19.521Z,13.31
2023-02-25T23:03:07.638Z,13.30
2023-02-25T23:05:55.062Z,13.29
2023-02-25T23:08:40.939Z,13.29
2023-02-25T23:11:32.033Z,13.27
2023-02-25T23:14:28.141Z,13.24
2023-02-25T23:17:13.970Z,13.23
2023-02-25T23:20:00.458Z,13.26
2023-02-25T23:22:53.944Z,13.28
2023-02-25T23:25:41.503Z,13.32
2023-02-25T23:28:27.600Z,13.32
2023-02-25T23:31:21.269Z,13.38
2023-02-25T23:34:25.585Z,13.40
2023-02-25T23:37:11.288Z,13.41
2023-02-25T23:39:56.955Z,13.42
2023-02-25T23:42:58.199Z,13.44
2023-02-25T23:45:46.857Z,13.52
2023-02-25T23:48:33.413Z,13.56
2023-02-25T23:51:24.860Z,13.56
2023-02-25T23:54:13.662Z,13.58
2023-02-25T23:56:59.386Z,13.60
2023-02-25T23:59:47.684Z,13.61
